createdAt,value
2022-10-09T00:03:20.317Z,65.00
2022-10-09T00:07:02.253Z,65.10
2022-10-09T00:10:44.413Z,65.20
2022-10-09T00:14:26.523Z,65.30
2022-10-09T00:18:09.874Z,65.30
2022-10-09T00:21:51.810Z,65.40
2022-10-09T00:25:35.930Z,65.40
2022-10-09T00:29:17.861Z,65.50
2022-10-09T00:32:59.774Z,65.70
2022-10-09T00:36:41.741Z,65.80
2022-10-09T00:40:24.976Z,65.60
2022-10-09T00:44:48.837Z,65.70
2022-10-09T00:48:31.738Z,67.40
2022-10-09T00:52:13.969Z,65.90
2022-10-09T00:55:56.473Z,65.90
2022-10-09T00:59:39.461Z,65.90
2022-10-09T01:03:21.402Z,65.90
2022-10-09T01:07:12.519Z,65.90
2022-10-09T01:11:08.181Z,66.60
2022-10-09T01:15:13.721Z,66.50
2022-10-09T01:19:21.190Z,67.30
2022-10-09T01:23:27.720Z,66.40
2022-10-09T01:27:22.100Z,66.90
2022-10-09T01:31:06.411Z,66.30
2022-10-09T01:34:50.819Z,65.90
2022-10-09T01:38:34.611Z,65.80
2022-10-09T01:42:18.663Z,65.90
2022-10-09T01:46:24.728Z,65.90
2022-10-09T01:50:12.371Z,66.60
2022-10-09T01:53:56.598Z,66.00
2022-10-09T01:57:50.533Z,65.90
2022-10-09T02:01:37.961Z,66.40
2022-10-09T02:05:25.707Z,66.40
2022-10-09T02:09:12.843Z,66.50
2022-10-09T02:12:58.282Z,66.50
2022-10-09T02:16:43.824Z,66.50
2022-10-09T02:20:31.178Z,66.60
2022-10-09T02:24:18.661Z,66.60
2022-10-09T02:28:01.729Z,66.60
2022-10-09T02:31:44.620Z,66.50
2022-10-09T02:35:26.642Z,66.40
2022-10-09T02:39:08.829Z,66.30
2022-10-09T02:42:51.257Z,66.20
2022-10-09T02:46:34.133Z,66.30
2022-10-09T02:50:16.270Z,66.40
2022-10-09T02:53:59.716Z,66.40
2022-10-09T02:57:41.590Z,66.40
2022-10-09T03:01:24.169Z,66.50
2022-10-09T03:05:06.629Z,66.60
2022-10-09T03:08:49.620Z,66.80
2022-10-09T03:12:31.514Z,67.00
2022-10-09T03:16:19.593Z,67.30
2022-10-09T03:20:01.450Z,67.60
2022-10-09T03:23:44.290Z,67.80
2022-10-09T03:27:26.186Z,67.00
2022-10-09T03:31:09.252Z,67.10
2022-10-09T03:34:51.158Z,67.00
2022-10-09T03:38:33.113Z,67.00
2022-10-09T03:42:15.262Z,67.00
2022-10-09T03:46:01.020Z,67.00
2022-10-09T03:49:43.406Z,67.10
2022-10-09T03:53:25.327Z,67.20
2022-10-09T03:57:07.253Z,67.20
2022-10-09T04:00:51.832Z,67.30
2022-10-09T04:04:33.801Z,67.30
2022-10-09T04:08:15.846Z,67.40
2022-10-09T04:11:57.790Z,67.50
2022-10-09T04:15:39.716Z,67.60
2022-10-09T04:19:21.594Z,67.60
2022-10-09T04:23:03.561Z,67.60
2022-10-09T04:26:45.473Z,67.60
2022-10-09T04:30:27.389Z,67.70
2022-10-09T04:34:09.286Z,67.70
2022-10-09T04:37:51.256Z,67.90
2022-10-09T04:41:37.453Z,68.00
2022-10-09T04:45:20.278Z,68.20
2022-10-09T04:49:02.245Z,68.20
2022-10-09T04:52:44.185Z,68.20
2022-10-09T04:56:26.037Z,68.20
2022-10-09T05:00:08.643Z,68.20
2022-10-09T05:03:51.150Z,68.20
2022-10-09T05:07:33.144Z,68.30
2022-10-09T05:11:22.127Z,68.40
2022-10-09T05:15:04.931Z,68.60
2022-10-09T05:18:50.298Z,68.30
2022-10-09T05:22:32.174Z,68.40
2022-10-09T05:26:17.262Z,68.50
2022-10-09T05:29:59.170Z,68.50
2022-10-09T05:33:41.073Z,68.50
2022-10-09T05:37:23.031Z,68.60
2022-10-09T05:41:06.895Z,68.60
2022-10-09T05:44:48.800Z,68.70
2022-10-09T05:48:30.801Z,68.70
2022-10-09T05:52:12.838Z,68.80
2022-10-09T05:55:54.727Z,68.80
2022-10-09T05:59:36.625Z,68.80
2022-10-09T06:03:18.575Z,68.90
2022-10-09T06:07:00.454Z,69.00
2022-10-09T06:10:42.404Z,69.10
2022-10-09T06:14:25.156Z,69.10
2022-10-09T06:18:07.081Z,69.10
2022-10-09T06:21:49.358Z,69.20
2022-10-09T06:25:31.346Z,69.10
2022-10-09T06:29:13.349Z,69.20
2022-10-09T06:32:55.403Z,69.30
2022-10-09T06:36:37.445Z,69.30
2022-10-09T06:40:19.363Z,69.30
2022-10-09T06:44:04.391Z,69.40
2022-10-09T06:47:46.421Z,69.40
2022-10-09T06:51:29.322Z,69.40
2022-10-09T06:55:11.273Z,69.40
2022-10-09T06:58:53.533Z,69.40
2022-10-09T07:02:41.765Z,69.50
2022-10-09T07:06:27.891Z,69.50
2022-10-09T07:10:10.190Z,69.50
2022-10-09T07:13:59.463Z,69.60
2022-10-09T07:17:41.518Z,69.70
2022-10-09T07:21:25.077Z,69.70
2022-10-09T07:25:07.792Z,69.70
2022-10-09T07:28:50.112Z,69.60
2022-10-09T07:32:32.119Z,69.60
2022-10-09T07:36:14.158Z,69.60
2022-10-09T07:39:56.093Z,69.60
2022-10-09T07:43:40.269Z,69.60
2022-10-09T07:47:22.233Z,69.70
2022-10-09T07:51:08.479Z,69.70
2022-10-09T07:54:50.467Z,69.80
2022-10-09T07:58:32.929Z,69.70
2022-10-09T08:02:14.930Z,69.80
2022-10-09T08:05:57.441Z,69.70
2022-10-09T08:09:40.609Z,69.70
2022-10-09T08:13:22.631Z,69.70
2022-10-09T08:17:04.836Z,69.70
2022-10-09T08:20:59.721Z,69.70
2022-10-09T08:24:41.757Z,70.30
2022-10-09T08:28:24.232Z,69.70
2022-10-09T08:32:06.315Z,69.70
2022-10-09T08:35:51.465Z,69.80
2022-10-09T08:39:33.375Z,69.80
2022-10-09T08:43:19.398Z,69.80
2022-10-09T08:47:14.429Z,69.90
2022-10-09T08:50:59.383Z,70.20
2022-10-09T08:54:41.834Z,69.70
2022-10-09T08:58:27.754Z,69.80
2022-10-09T09:02:35.803Z,69.80
2022-10-09T09:06:36.571Z,70.90
2022-10-09T09:10:46.694Z,71.10
2022-10-09T09:14:53.146Z,71.10
2022-10-09T09:18:43.013Z,71.10
2022-10-09T09:22:27.290Z,72.70
2022-10-09T09:26:18.694Z,71.40
2022-10-09T09:30:06.754Z,72.70
2022-10-09T09:33:53.185Z,72.30
2022-10-09T09:37:37.683Z,75.40
2022-10-09T09:41:19.939Z,72.20
2022-10-09T09:45:07.865Z,71.90
2022-10-09T09:48:50.338Z,71.90
2022-10-09T09:52:37.750Z,71.70
2022-10-09T09:56:20.297Z,72.30
2022-10-09T10:00:28.588Z,71.50
2022-10-09T10:04:20.664Z,71.80
2022-10-09T10:08:29.242Z,71.00
2022-10-09T10:12:15.510Z,70.70
2022-10-09T10:15:58.529Z,70.00
2022-10-09T10:19:40.588Z,69.80
2022-10-09T10:23:30.194Z,69.10
2022-10-09T10:27:24.062Z,69.20
2022-10-09T10:31:13.088Z,68.90
2022-10-09T10:35:27.992Z,68.70
2022-10-09T10:39:27.010Z,67.40
2022-10-09T10:43:23.255Z,67.70
2022-10-09T10:47:14.678Z,67.70
2022-10-09T10:51:34.849Z,66.60
2022-10-09T10:55:22.333Z,63.60
2022-10-09T10:59:23.401Z,66.20
2022-10-09T11:03:17.446Z,66.30
2022-10-09T11:07:13.581Z,65.70
2022-10-09T11:11:14.377Z,65.00
2022-10-09T11:15:09.551Z,62.80
2022-10-09T11:19:20.478Z,65.00
2022-10-09T11:23:23.819Z,63.40
2022-10-09T11:27:24.303Z,62.80
2022-10-09T11:31:19.893Z,64.10
2022-10-09T11:35:23.774Z,62.60
2022-10-09T11:39:11.069Z,63.00
2022-10-09T11:43:08.417Z,62.90
2022-10-09T11:47:09.930Z,62.20
2022-10-09T11:51:47.307Z,62.80
2022-10-09T11:55:32.330Z,60.90
2022-10-09T11:59:23.147Z,60.90
2022-10-09T12:03:06.952Z,61.30
2022-10-09T12:07:03.761Z,62.00
2022-10-09T12:10:53.826Z,62.10
2022-10-09T12:14:37.961Z,60.80
2022-10-09T12:18:28.090Z,61.70
2022-10-09T12:22:17.851Z,60.30
2022-10-09T12:26:01.792Z,60.10
2022-10-09T12:29:53.681Z,60.40
2022-10-09T12:33:58.915Z,59.10
2022-10-09T12:37:40.838Z,59.60
2022-10-09T12:41:29.996Z,58.90
2022-10-09T12:45:21.791Z,58.70
2022-10-09T12:49:06.057Z,57.50
2022-10-09T12:52:52.754Z,57.90
2022-10-09T12:56:38.365Z,57.70
2022-10-09T13:00:20.437Z,57.00
2022-10-09T13:04:05.063Z,56.10
2022-10-09T13:07:54.116Z,56.60
2022-10-09T13:11:40.610Z,53.60
2022-10-09T13:15:36.883Z,55.90
2022-10-09T13:19:25.657Z,51.90
2022-10-09T13:23:07.644Z,55.00
2022-10-09T13:26:49.583Z,56.20
2022-10-09T13:30:31.838Z,55.60
2022-10-09T13:34:14.688Z,55.70
2022-10-09T13:37:56.621Z,55.80
2022-10-09T13:41:38.539Z,55.50
2022-10-09T13:45:20.790Z,55.50
2022-10-09T13:49:02.690Z,55.30
2022-10-09T13:52:44.774Z,54.90
2022-10-09T13:56:27.885Z,54.50
2022-10-09T14:00:10.502Z,53.60
2022-10-09T14:03:52.826Z,53.70
2022-10-09T14:07:35.200Z,53.60
2022-10-09T14:11:17.514Z,53.60
2022-10-09T14:14:59.413Z,53.90
2022-10-09T14:18:41.382Z,53.40
2022-10-09T14:22:23.426Z,53.60
2022-10-09T14:26:06.738Z,53.70
2022-10-09T14:29:51.113Z,53.40
2022-10-09T14:33:35.176Z,53.10
2022-10-09T14:37:29.836Z,52.90
2022-10-09T14:41:20.070Z,52.50
2022-10-09T14:45:01.992Z,52.30
2022-10-09T14:48:50.131Z,52.70
2022-10-09T14:52:32.257Z,52.70
2022-10-09T14:56:17.312Z,52.60
2022-10-09T14:59:59.298Z,52.50
2022-10-09T15:03:41.306Z,52.20
2022-10-09T15:07:23.436Z,52.30
2022-10-09T15:11:05.748Z,52.60
2022-10-09T15:14:47.978Z,52.80
2022-10-09T15:18:30.471Z,53.00
2022-10-09T15:22:12.367Z,52.70
2022-10-09T15:25:57.142Z,52.20
2022-10-09T15:29:39.098Z,51.90
2022-10-09T15:33:22.629Z,52.10
2022-10-09T15:37:04.734Z,52.30
2022-10-09T15:40:49.664Z,52.20
2022-10-09T15:44:31.681Z,51.90
2022-10-09T15:48:22.561Z,52.10
2022-10-09T15:52:04.558Z,51.40
2022-10-09T15:55:48.116Z,52.50
2022-10-09T15:59:31.671Z,52.50
2022-10-09T16:03:15.242Z,52.60
2022-10-09T16:06:58.257Z,52.70
2022-10-09T16:10:48.566Z,52.70
2022-10-09T16:14:32.131Z,52.90
2022-10-09T16:18:19.017Z,52.70
2022-10-09T16:22:00.989Z,52.90
2022-10-09T16:25:43.941Z,53.20
2022-10-09T16:29:26.538Z,53.40
2022-10-09T16:33:12.474Z,53.60
2022-10-09T16:36:56.835Z,53.80
2022-10-09T16:41:01.421Z,53.90
2022-10-09T16:44:44.117Z,54.00
2022-10-09T16:48:26.023Z,54.20
2022-10-09T16:52:07.949Z,54.40
2022-10-09T16:55:49.955Z,54.50
2022-10-09T16:59:31.941Z,54.70
2022-10-09T17:03:13.863Z,54.80
2022-10-09T17:06:55.892Z,55.00
2022-10-09T17:10:42.166Z,55.20
2022-10-09T17:14:24.103Z,55.50
2022-10-09T17:18:06.169Z,55.60
2022-10-09T17:21:48.128Z,55.80
2022-10-09T17:25:30.270Z,55.90
2022-10-09T17:29:14.220Z,56.10
2022-10-09T17:32:56.147Z,56.30
2022-10-09T17:36:40.478Z,56.60
2022-10-09T17:40:22.350Z,56.90
2022-10-09T17:44:04.778Z,56.80
2022-10-09T17:47:46.721Z,57.00
2022-10-09T17:51:37.633Z,57.40
2022-10-09T17:55:19.504Z,57.30
2022-10-09T17:59:02.292Z,57.70
2022-10-09T18:02:44.137Z,57.80
2022-10-09T18:06:26.322Z,57.90
2022-10-09T18:10:08.628Z,58.10
2022-10-09T18:13:51.120Z,58.20
2022-10-09T18:17:34.561Z,58.20
2022-10-09T18:21:18.270Z,58.50
2022-10-09T18:25:00.185Z,58.60
2022-10-09T18:28:44.848Z,58.80
2022-10-09T18:32:30.011Z,59.00
2022-10-09T18:36:24.284Z,59.20
2022-10-09T18:40:07.538Z,60.10
2022-10-09T18:43:51.005Z,59.30
2022-10-09T18:47:35.053Z,59.30
2022-10-09T18:51:20.237Z,59.50
2022-10-09T18:55:03.582Z,59.60
2022-10-09T18:58:46.062Z,59.70
2022-10-09T19:02:28.149Z,59.70
2022-10-09T19:06:10.193Z,59.90
2022-10-09T19:09:56.991Z,60.00
2022-10-09T19:13:39.314Z,60.20
2022-10-09T19:17:21.593Z,60.30
2022-10-09T19:21:03.723Z,60.60
2022-10-09T19:24:45.801Z,60.60
2022-10-09T19:28:33.092Z,60.80
2022-10-09T19:32:18.228Z,61.00
2022-10-09T19:36:02.175Z,61.00
2022-10-09T19:39:48.506Z,61.10
2022-10-09T19:43:31.856Z,61.20
2022-10-09T19:47:15.397Z,61.30
2022-10-09T19:50:57.495Z,61.30
2022-10-09T19:54:40.173Z,61.40
2022-10-09T19:58:22.139Z,61.50
2022-10-09T20:02:04.342Z,61.80
2022-10-09T20:05:46.293Z,62.10
2022-10-09T20:09:28.194Z,62.20
2022-10-09T20:13:10.093Z,62.00
2022-10-09T20:16:51.946Z,62.20
2022-10-09T20:20:36.142Z,62.20
2022-10-09T20:24:18.040Z,62.30
2022-10-09T20:27:59.990Z,62.50
2022-10-09T20:31:41.917Z,62.60
2022-10-09T20:35:23.824Z,63.00
2022-10-09T20:39:08.559Z,62.80
2022-10-09T20:42:50.699Z,63.30
2022-10-09T20:46:35.208Z,63.30
2022-10-09T20:50:17.155Z,63.30
2022-10-09T20:54:00.113Z,63.40
2022-10-09T20:57:42.088Z,63.60
2022-10-09T21:01:24.670Z,63.30
2022-10-09T21:05:08.295Z,63.50
2022-10-09T21:08:50.625Z,63.40
2022-10-09T21:12:32.598Z,63.60
2022-10-09T21:16:18.123Z,63.60
2022-10-09T21:20:00.439Z,63.80
2022-10-09T21:23:43.927Z,63.70
2022-10-09T21:27:25.896Z,63.90
2022-10-09T21:31:12.770Z,63.90
2022-10-09T21:34:54.815Z,64.00
2022-10-09T21:38:36.820Z,64.20
2022-10-09T21:42:18.702Z,64.20
2022-10-09T21:46:01.028Z,64.30
2022-10-09T21:49:42.968Z,64.40
2022-10-09T21:53:24.868Z,64.80
2022-10-09T21:57:06.833Z,64.90
2022-10-09T22:00:59.132Z,65.70
2022-10-09T22:04:41.139Z,65.90
2022-10-09T22:08:24.248Z,65.30
2022-10-09T22:12:06.200Z,65.50
2022-10-09T22:15:51.104Z,65.60
2022-10-09T22:19:33.425Z,65.80
2022-10-09T22:23:17.042Z,65.80
2022-10-09T22:26:59.338Z,65.80
2022-10-09T22:30:41.330Z,66.00
2022-10-09T22:34:23.245Z,66.10
2022-10-09T22:38:05.376Z,66.20
2022-10-09T22:41:47.341Z,66.40
2022-10-09T22:45:29.251Z,66.50
2022-10-09T22:49:14.680Z,66.60
2022-10-09T22:52:56.613Z,66.50
2022-10-09T22:56:41.581Z,66.70
2022-10-09T23:00:23.512Z,66.80
2022-10-09T23:04:07.823Z,66.70
2022-10-09T23:07:49.789Z,66.70
2022-10-09T23:11:31.912Z,66.70
2022-10-09T23:15:13.905Z,66.90
2022-10-09T23:18:57.933Z,66.90
2022-10-09T23:22:40.289Z,66.90
2022-10-09T23:26:30.373Z,67.00
2022-10-09T23:30:12.810Z,67.70
2022-10-09T23:33:55.566Z,67.40
2022-10-09T23:37:37.646Z,67.20
2022-10-09T23:41:22.556Z,67.30
2022-10-09T23:45:04.913Z,67.30
2022-10-09T23:48:47.638Z,67.50
2022-10-09T23:52:29.648Z,67.60
2022-10-09T23:56:17.618Z,67.60
2022-10-09T23:59:59.523Z,67.80
